sensor_id;sensor_type;location;lat;lon;timestamp;pressure;altitude;pressure_sealevel;temperature;humidity
8280;BME280;8335;42.646;23.380;2022-12-29T00:00:07;95280.53;;;5.03;100.00
8280;BME280;8335;42.646;23.380;2022-12-29T00:02:36;95288.84;;;5.10;100.00
8280;BME280;8335;42.646;23.380;2022-12-29T00:05:03;95284.50;;;5.16;100.00
8280;BME280;8335;42.646;23.380;2022-12-29T00:07:29;95278.81;;;5.05;100.00
8280;BME280;8335;42.646;23.380;2022-12-29T00:09:56;95277.16;;;5.04;100.00
8280;BME280;8335;42.646;23.380;2022-12-29T00:12:23;95280.50;;;5.05;100.00
8280;BME280;8335;42.646;23.380;2022-12-29T00:14:50;95290.63;;;5.03;100.00
8280;BME280;8335;42.646;23.380;2022-12-29T00:17:34;95287.38;;;4.96;100.00
8280;BME280;8335;42.646;23.380;2022-12-29T00:20:02;95280.00;;;4.84;100.00
8280;BME280;8335;42.646;23.380;2022-12-29T00:22:46;95286.69;;;4.88;100.00
8280;BME280;8335;42.646;23.380;2022-12-29T00:25:30;95287.56;;;4.84;100.00
8280;BME280;8335;42.646;23.380;2022-12-29T00:28:14;95293.44;;;4.86;100.00
8280;BME280;8335;42.646;23.380;2022-12-29T00:30:59;95294.28;;;4.85;100.00
8280;BME280;8335;42.646;23.380;2022-12-29T00:33:43;95299.41;;;4.82;100.00
8280;BME280;8335;42.646;23.380;2022-12-29T00:36:32;95296.03;;;4.82;100.00
8280;BME280;8335;42.646;23.380;2022-12-29T00:39:02;95287.69;;;4.80;100.00
8280;BME280;8335;42.646;23.380;2022-12-29T00:41:47;95293.56;;;4.80;100.00
8280;BME280;8335;42.646;23.380;2022-12-29T00:44:40;95300.25;;;4.81;100.00
8280;BME280;8335;42.646;23.380;2022-12-29T00:47:06;95300.25;;;4.81;100.00
8280;BME280;8335;42.646;23.380;2022-12-29T00:49:33;95302.28;;;4.59;100.00
8280;BME280;8335;42.646;23.380;2022-12-29T00:52:03;95291.53;;;4.48;100.00
8280;BME280;8335;42.646;23.380;2022-12-29T00:54:31;95304.06;;;4.53;100.00
8280;BME280;8335;42.646;23.380;2022-12-29T00:56:59;95300.75;;;4.49;100.00
8280;BME280;8335;42.646;23.380;2022-12-29T00:59:26;95302.44;;;4.49;100.00
8280;BME280;8335;42.646;23.380;2022-12-29T01:01:54;95298.19;;;4.52;100.00
8280;BME280;8335;42.646;23.380;2022-12-29T01:04:22;95304.00;;;4.57;100.00
8280;BME280;8335;42.646;23.380;2022-12-29T01:06:49;95299.75;;;4.61;100.00
8280;BME280;8335;42.646;23.380;2022-12-29T01:09:18;95289.72;;;4.58;100.00
8280;BME280;8335;42.646;23.380;2022-12-29T01:12:03;95289.59;;;4.65;100.00
8280;BME280;8335;42.646;23.380;2022-12-29T01:14:30;95292.13;;;4.65;100.00
8280;BME280;8335;42.646;23.380;2022-12-29T01:16:57;95293.75;;;4.68;100.00
8280;BME280;8335;42.646;23.380;2022-12-29T01:19:24;95286.19;;;4.68;100.00
8280;BME280;8335;42.646;23.380;2022-12-29T01:21:52;95283.94;;;4.50;100.00
8280;BME280;8335;42.646;23.380;2022-12-29T01:24:20;95279.81;;;4.46;100.00
8280;BME280;8335;42.646;23.380;2022-12-29T01:26:47;95288.97;;;4.51;100.00
8280;BME280;8335;42.646;23.380;2022-12-29T01:29:14;95285.72;;;4.45;100.00
8280;BME280;8335;42.646;23.380;2022-12-29T01:31:41;95281.56;;;4.40;100.00
8280;BME280;8335;42.646;23.380;2022-12-29T01:34:07;95283.25;;;4.40;100.00
8280;BME280;8335;42.646;23.380;2022-12-29T01:36:34;95250.88;;;4.12;100.00
8280;BME280;8335;42.646;23.380;2022-12-29T01:39:01;95280.06;;;4.27;100.00
8280;BME280;8335;42.646;23.380;2022-12-29T01:41:29;95271.03;;;4.12;100.00
8280;BME280;8335;42.646;23.380;2022-12-29T01:43:58;95266.25;;;3.96;100.00
8280;BME280;8335;42.646;23.380;2022-12-29T01:46:29;95272.13;;;3.96;100.00
8280;BME280;8335;42.646;23.380;2022-12-29T01:49:03;95269.69;;;3.90;100.00
8280;BME280;8335;42.646;23.380;2022-12-29T01:51:31;95248.94;;;3.73;100.00
8280;BME280;8335;42.646;23.380;2022-12-29T01:54:02;95261.38;;;3.83;100.00
8280;BME280;8335;42.646;23.380;2022-12-29T01:56:32;95263.03;;;3.84;100.00
8280;BME280;8335;42.646;23.380;2022-12-29T01:59:02;95253.88;;;3.80;100.00
8280;BME280;8335;42.646;23.380;2022-12-29T02:01:32;95260.50;;;3.84;100.00
8280;BME280;8335;42.646;23.380;2022-12-29T02:03:59;95267.28;;;3.81;100.00
8280;BME280;8335;42.646;23.380;2022-12-29T02:06:29;95252.31;;;3.72;100.00
8280;BME280;8335;42.646;23.380;2022-12-29T02:08:58;95250.72;;;3.65;100.00
8280;BME280;8335;42.646;23.380;2022-12-29T02:11:26;95245.88;;;3.48;100.00
8280;BME280;8335;42.646;23.380;2022-12-29T02:13:56;95244.09;;;3.56;100.00
8280;BME280;8335;42.646;23.380;2022-12-29T02:16:39;95260.00;;;3.61;100.00
8280;BME280;8335;42.646;23.380;2022-12-29T02:19:27;95254.94;;;3.61;100.00
8280;BME280;8335;42.646;23.380;2022-12-29T02:22:06;95249.03;;;3.65;100.00
8280;BME280;8335;42.646;23.380;2022-12-29T02:28:06;95249.78;;;3.72;100.00
8280;BME280;8335;42.646;23.380;2022-12-29T02:30:43;95240.53;;;3.71;100.00
8280;BME280;8335;42.646;23.380;2022-12-29T02:33:21;95206.31;;;3.56;100.00
8280;BME280;8335;42.646;23.380;2022-12-29T02:35:55;95246.22;;;3.86;100.00
8280;BME280;8335;42.646;23.380;2022-12-29T02:38:34;95239.50;;;3.85;100.00
8280;BME280;8335;42.646;23.380;2022-12-29T02:41:08;95250.38;;;3.89;100.00
8280;BME280;8335;42.646;23.380;2022-12-29T02:43:43;95239.44;;;3.90;100.00
8280;BME280;8335;42.646;23.380;2022-12-29T02:46:17;95244.38;;;3.98;100.00
8280;BME280;8335;42.646;23.380;2022-12-29T02:48:52;95241.78;;;4.04;100.00
8280;BME280;8335;42.646;23.380;2022-12-29T02:51:25;95234.22;;;4.04;100.00
8280;BME280;8335;42.646;23.380;2022-12-29T02:53:54;95242.56;;;4.09;100.00
8280;BME280;8335;42.646;23.380;2022-12-29T02:56:40;95242.41;;;4.18;100.00
8280;BME280;8335;42.646;23.380;2022-12-29T02:59:06;95238.09;;;4.25;100.00
8280;BME280;8335;42.646;23.380;2022-12-29T03:01:52;95242.22;;;4.30;100.00
8280;BME280;8335;42.646;23.380;2022-12-29T03:04:39;95235.44;;;4.34;100.00
8280;BME280;8335;42.646;23.380;2022-12-29T03:07:17;95239.63;;;4.36;100.00
8280;BME280;8335;42.646;23.380;2022-12-29T03:09:51;95243.78;;;4.39;100.00
8280;BME280;8335;42.646;23.380;2022-12-29T03:12:25;95231.09;;;4.44;100.00
8280;BME280;8335;42.646;23.380;2022-12-29T03:15:20;95232.66;;;4.49;100.00
8280;BME280;8335;42.646;23.380;2022-12-29T03:18:10;95232.53;;;4.58;100.00
8280;BME280;8335;42.646;23.380;2022-12-29T03:20:44;95236.69;;;4.61;100.00
8280;BME280;8335;42.646;23.380;2022-12-29T03:23:14;95238.34;;;4.62;100.00
8280;BME280;8335;42.646;23.380;2022-12-29T03:25:43;95226.59;;;4.61;100.00
8280;BME280;8335;42.646;23.380;2022-12-29T03:28:15;95233.41;;;4.57;100.00
8280;BME280;8335;42.646;23.380;2022-12-29T03:30:45;95221.66;;;4.55;100.00
8280;BME280;8335;42.646;23.380;2022-12-29T03:33:17;95224.97;;;4.57;100.00
8280;BME280;8335;42.646;23.380;2022-12-29T03:35:48;95229.25;;;4.53;100.00
8280;BME280;8335;42.646;23.380;2022-12-29T03:38:18;95217.66;;;4.41;100.00
8280;BME280;8335;42.646;23.380;2022-12-29T03:40:48;95220.22;;;4.40;100.00
8280;BME280;8335;42.646;23.380;2022-12-29T03:43:17;95235.31;;;4.41;100.00
8280;BME280;8335;42.646;23.380;2022-12-29T03:45:44;95235.41;;;4.37;100.00
8280;BME280;8335;42.646;23.380;2022-12-29T03:48:11;95240.44;;;4.37;100.00
8280;BME280;8335;42.646;23.380;2022-12-29T03:50:39;95243.09;;;4.28;100.00
8280;BME280;8335;42.646;23.380;2022-12-29T03:53:06;95250.84;;;4.16;100.00
8280;BME280;8335;42.646;23.380;2022-12-29T03:55:33;95222.06;;;3.73;100.00
8280;BME280;8335;42.646;23.380;2022-12-29T03:57:59;95253.06;;;3.77;100.00
8280;BME280;8335;42.646;23.380;2022-12-29T04:00:26;95249.72;;;3.76;100.00
8280;BME280;8335;42.646;23.380;2022-12-29T04:02:53;95250.66;;;3.68;100.00
8280;BME280;8335;42.646;23.380;2022-12-29T04:05:20;95254.16;;;3.59;100.00
8280;BME280;8335;42.646;23.380;2022-12-29T04:07:48;95255.88;;;3.54;100.00
8280;BME280;8335;42.646;23.380;2022-12-29T04:10:15;95237.56;;;3.41;100.00
8280;BME280;8335;42.646;23.380;2022-12-29T04:12:42;95250.09;;;3.46;100.00
8280;BME280;8335;42.646;23.380;2022-12-29T04:15:11;95253.50;;;3.43;100.00
8280;BME280;8335;42.646;23.380;2022-12-29T04:17:37;95247.72;;;3.37;100.00
8280;BME280;8335;42.646;23.380;2022-12-29T04:20:05;95251.06;;;3.37;100.00
8280;BME280;8335;42.646;23.380;2022-12-29T04:22:58;95232.75;;;3.24;100.00
8280;BME280;8335;42.646;23.380;2022-12-29T04:25:24;95247.00;;;3.24;100.00
8280;BME280;8335;42.646;23.380;2022-12-29T04:27:51;95255.41;;;3.23;100.00
8280;BME280;8335;42.646;23.380;2022-12-29T04:30:18;95251.25;;;3.19;100.00
8280;BME280;8335;42.646;23.380;2022-12-29T04:32:45;95247.09;;;3.16;100.00
8280;BME280;8335;42.646;23.380;2022-12-29T04:35:12;95254.66;;;3.15;100.00
8280;BME280;8335;42.646;23.380;2022-12-29T04:37:38;95258.84;;;3.14;100.00
8280;BME280;8335;42.646;23.380;2022-12-29T04:40:08;95267.25;;;3.13;100.00
8280;BME280;8335;42.646;23.380;2022-12-29T04:42:35;95258.06;;;3.11;100.00
8280;BME280;8335;42.646;23.380;2022-12-29T04:45:02;95262.25;;;3.10;100.00
8280;BME280;8335;42.646;23.380;2022-12-29T04:47:29;95268.94;;;3.11;100.00
8280;BME280;8335;42.646;23.380;2022-12-29T04:49:56;95275.66;;;3.11;100.00
8280;BME280;8335;42.646;23.380;2022-12-29T04:52:23;95273.13;;;3.15;100.00
8280;BME280;8335;42.646;23.380;2022-12-29T04:54:49;95271.44;;;3.14;100.00
8280;BME280;8335;42.646;23.380;2022-12-29T04:57:17;95268.88;;;3.17;100.00
8280;BME280;8335;42.646;23.380;2022-12-29T04:59:44;95275.56;;;3.23;100.00
8280;BME280;8335;42.646;23.380;2022-12-29T05:02:11;95278.03;;;3.24;100.00
8280;BME280;8335;42.646;23.380;2022-12-29T05:04:38;95274.63;;;3.30;100.00
8280;BME280;8335;42.646;23.380;2022-12-29T05:07:04;95274.56;;;3.35;100.00
8280;BME280;8335;42.646;23.380;2022-12-29T05:09:31;95279.66;;;3.31;100.00
8280;BME280;8335;42.646;23.380;2022-12-29T05:11:58;95280.50;;;3.30;100.00
8280;BME280;8335;42.646;23.380;2022-12-29T05:14:26;95281.25;;;3.36;100.00
8280;BME280;8335;42.646;23.380;2022-12-29T05:16:53;95277.91;;;3.35;100.00
8280;BME280;8335;42.646;23.380;2022-12-29T05:19:20;95280.38;;;3.41;100.00
8280;BME280;8335;42.646;23.380;2022-12-29T05:21:46;95278.66;;;3.45;100.00
8280;BME280;8335;42.646;23.380;2022-12-29T05:24:13;95276.84;;;3.54;100.00
8280;BME280;8335;42.646;23.380;2022-12-29T05:26:40;95271.69;;;3.64;100.00
8280;BME280;8335;42.646;23.380;2022-12-29T05:29:07;95275.84;;;3.68;100.00
8280;BME280;8335;42.646;23.380;2022-12-29T05:31:35;95284.19;;;3.73;100.00
8280;BME280;8335;42.646;23.380;2022-12-29T05:34:02;95276.63;;;3.74;100.00
8280;BME280;8335;42.646;23.380;2022-12-29T05:36:29;95279.91;;;3.78;100.00
8280;BME280;8335;42.646;23.380;2022-12-29T05:38:56;95282.41;;;3.81;100.00
8280;BME280;8335;42.646;23.380;2022-12-29T05:41:23;95284.91;;;3.82;100.00
8280;BME280;8335;42.646;23.380;2022-12-29T05:43:50;95277.28;;;3.87;100.00
8280;BME280;8335;42.646;23.380;2022-12-29T05:46:16;95286.50;;;3.88;100.00
8280;BME280;8335;42.646;23.380;2022-12-29T05:48:45;95291.59;;;3.86;100.00
8280;BME280;8335;42.646;23.380;2022-12-29T05:51:11;95291.53;;;3.90;100.00
8280;BME280;8335;42.646;23.380;2022-12-29T05:53:38;95293.22;;;3.89;100.00
8280;BME280;8335;42.646;23.380;2022-12-29T05:56:05;95295.63;;;3.97;100.00
8280;BME280;8335;42.646;23.380;2022-12-29T05:58:32;95298.94;;;4.02;100.00
8280;BME280;8335;42.646;23.380;2022-12-29T06:00:59;95297.19;;;4.05;100.00
8280;BME280;8335;42.646;23.380;2022-12-29T06:03:26;95305.53;;;4.10;100.00
8280;BME280;8335;42.646;23.380;2022-12-29T06:05:54;95302.13;;;4.14;100.00
8280;BME280;8335;42.646;23.380;2022-12-29T06:08:21;95304.59;;;4.18;100.00
8280;BME280;8335;42.646;23.380;2022-12-29T06:10:47;95311.25;;;4.23;100.00
8280;BME280;8335;42.646;23.380;2022-12-29T06:13:14;95316.19;;;4.28;100.00
8280;BME280;8335;42.646;23.380;2022-12-29T06:15:41;95310.25;;;4.33;100.00
8280;BME280;8335;42.646;23.380;2022-12-29T06:18:08;95304.19;;;4.45;100.00
8280;BME280;8335;42.646;23.380;2022-12-29T06:20:34;95301.38;;;4.65;100.00
8280;BME280;8335;42.646;23.380;2022-12-29T06:23:03;95304.31;;;4.90;100.00
8280;BME280;8335;42.646;23.380;2022-12-29T06:25:29;95311.41;;;5.17;100.00
8280;BME280;8335;42.646;23.380;2022-12-29T06:27:57;95306.69;;;5.45;100.00
8280;BME280;8335;42.646;23.380;2022-12-29T06:30:24;95303.66;;;5.71;100.00
8280;BME280;8335;42.646;23.380;2022-12-29T06:32:51;95310.69;;;6.00;100.00
8280;BME280;8335;42.646;23.380;2022-12-29T06:35:18;95319.38;;;6.27;100.00
8280;BME280;8335;42.646;23.380;2022-12-29T06:37:44;95317.06;;;6.55;99.76
8280;BME280;8335;42.646;23.380;2022-12-29T06:40:13;95309.69;;;6.82;98.11
8280;BME280;8335;42.646;23.380;2022-12-29T06:42:39;95326.56;;;7.17;96.62
8280;BME280;8335;42.646;23.380;2022-12-29T06:45:06;95324.00;;;7.50;94.72
8280;BME280;8335;42.646;23.380;2022-12-29T06:47:34;95322.22;;;7.84;92.95
8280;BME280;8335;42.646;23.380;2022-12-29T06:50:01;95324.03;;;8.10;90.63
8280;BME280;8335;42.646;23.380;2022-12-29T06:52:28;95328.78;;;8.21;89.37
8280;BME280;8335;42.646;23.380;2022-12-29T06:54:55;95338.94;;;8.21;88.32
8280;BME280;8335;42.646;23.380;2022-12-29T06:57:23;95334.09;;;8.13;87.80
8280;BME280;8335;42.646;23.380;2022-12-29T06:59:51;95338.66;;;8.02;88.10
8280;BME280;8335;42.646;23.380;2022-12-29T07:02:20;95337.09;;;7.96;89.72
8280;BME280;8335;42.646;23.380;2022-12-29T07:04:47;95338.94;;;7.91;89.64
8280;BME280;8335;42.646;23.380;2022-12-29T07:07:14;95330.66;;;7.86;90.19
8280;BME280;8335;42.646;23.380;2022-12-29T07:09:41;95331.72;;;7.78;90.63
8280;BME280;8335;42.646;23.380;2022-12-29T07:12:08;95330.97;;;7.74;91.46
8280;BME280;8335;42.646;23.380;2022-12-29T07:14:36;95223.97;;;7.02;91.02
8280;BME280;8335;42.646;23.380;2022-12-29T07:17:03;95335.47;;;7.64;90.83
8280;BME280;8335;42.646;23.380;2022-12-29T07:19:30;95337.34;;;7.56;91.39
8280;BME280;8335;42.646;23.380;2022-12-29T07:21:57;95332.53;;;7.47;90.83
8280;BME280;8335;42.646;23.380;2022-12-29T07:24:24;95330.66;;;7.54;90.88
8280;BME280;8335;42.646;23.380;2022-12-29T07:26:52;95328.22;;;7.82;91.01
8280;BME280;8335;42.646;23.380;2022-12-29T07:29:19;95332.16;;;8.21;89.66
8280;BME280;8335;42.646;23.380;2022-12-29T07:31:47;95331.84;;;8.62;87.29
8280;BME280;8335;42.646;23.380;2022-12-29T07:34:13;95340.50;;;9.09;85.00
8280;BME280;8335;42.646;23.380;2022-12-29T07:36:40;95338.09;;;9.56;83.65
8280;BME280;8335;42.646;23.380;2022-12-29T07:39:07;95334.66;;;10.05;81.57
8280;BME280;8335;42.646;23.380;2022-12-29T07:41:34;95344.34;;;10.64;79.46
8280;BME280;8335;42.646;23.380;2022-12-29T07:44:01;95333.72;;;11.19;76.26
8280;BME280;8335;42.646;23.380;2022-12-29T07:46:27;95327.66;;;11.62;73.62
8280;BME280;8335;42.646;23.380;2022-12-29T07:48:56;95345.34;;;12.06;72.19
8280;BME280;8335;42.646;23.380;2022-12-29T07:51:22;95343.72;;;12.43;70.45
8280;BME280;8335;42.646;23.380;2022-12-29T07:53:49;95347.53;;;12.72;68.88
8280;BME280;8335;42.646;23.380;2022-12-29T07:56:16;95356.31;;;13.02;67.56
8280;BME280;8335;42.646;23.380;2022-12-29T07:58:42;95348.25;;;13.10;65.60
8280;BME280;8335;42.646;23.380;2022-12-29T08:01:09;95350.66;;;12.95;65.66
8280;BME280;8335;42.646;23.380;2022-12-29T08:03:36;95358.19;;;13.16;65.67
8280;BME280;8335;42.646;23.380;2022-12-29T08:06:05;95359.75;;;13.37;65.03
8280;BME280;8335;42.646;23.380;2022-12-29T08:08:31;95341.78;;;13.39;64.83
8280;BME280;8335;42.646;23.380;2022-12-29T08:10:58;95363.06;;;13.74;64.37
8280;BME280;8335;42.646;23.380;2022-12-29T08:13:25;95365.03;;;14.02;63.22
8280;BME280;8335;42.646;23.380;2022-12-29T08:15:51;95363.94;;;14.39;61.71
8280;BME280;8335;42.646;23.380;2022-12-29T08:18:18;95358.22;;;14.67;60.95
8280;BME280;8335;42.646;23.380;2022-12-29T08:20:45;95351.31;;;14.99;60.05
8280;BME280;8335;42.646;23.380;2022-12-29T08:23:13;95365.03;;;15.30;58.62
8280;BME280;8335;42.646;23.380;2022-12-29T08:25:40;95353.19;;;15.57;55.01
8280;BME280;8335;42.646;23.380;2022-12-29T08:28:07;95350.69;;;15.56;53.52
8280;BME280;8335;42.646;23.380;2022-12-29T08:30:34;95351.31;;;15.75;52.67
8280;BME280;8335;42.646;23.380;2022-12-29T08:33:02;95355.19;;;15.96;52.69
8280;BME280;8335;42.646;23.380;2022-12-29T08:35:28;95357.06;;;16.09;51.63
8280;BME280;8335;42.646;23.380;2022-12-29T08:37:55;95350.44;;;16.05;50.84
8280;BME280;8335;42.646;23.380;2022-12-29T08:40:23;95353.47;;;16.26;50.31
8280;BME280;8335;42.646;23.380;2022-12-29T08:42:50;95351.44;;;16.45;49.96
8280;BME280;8335;42.646;23.380;2022-12-29T08:45:17;95349.03;;;16.70;49.92
8280;BME280;8335;42.646;23.380;2022-12-29T08:47:43;95350.06;;;16.95;48.83
8280;BME280;8335;42.646;23.380;2022-12-29T08:50:10;95357.75;;;17.09;48.18
8280;BME280;8335;42.646;23.380;2022-12-29T08:52:37;95354.38;;;17.21;48.25
8280;BME280;8335;42.646;23.380;2022-12-29T08:55:04;95352.78;;;17.33;47.43
8280;BME280;8335;42.646;23.380;2022-12-29T08:57:32;95346.44;;;17.51;46.81
8280;BME280;8335;42.646;23.380;2022-12-29T08:59:59;95345.28;;;17.55;46.62
8280;BME280;8335;42.646;23.380;2022-12-29T09:02:26;95352.78;;;17.73;46.75
8280;BME280;8335;42.646;23.380;2022-12-29T09:04:53;95343.09;;;17.89;46.23
8280;BME280;8335;42.646;23.380;2022-12-29T09:07:19;95342.78;;;18.06;46.06
8280;BME280;8335;42.646;23.380;2022-12-29T09:09:46;95339.69;;;18.14;45.55
8280;BME280;8335;42.646;23.380;2022-12-29T09:12:13;95343.91;;;18.28;45.13
8280;BME280;8335;42.646;23.380;2022-12-29T09:14:41;95336.16;;;18.40;44.61
8280;BME280;8335;42.646;23.380;2022-12-29T09:17:09;95330.00;;;18.30;44.54
8280;BME280;8335;42.646;23.380;2022-12-29T09:19:54;95334.13;;;18.20;44.39
8280;BME280;8335;42.646;23.380;2022-12-29T09:22:21;95327.84;;;18.24;44.34
8280;BME280;8335;42.646;23.380;2022-12-29T09:24:48;95334.84;;;18.22;44.05
8280;BME280;8335;42.646;23.380;2022-12-29T09:27:14;95333.81;;;18.25;44.24
8280;BME280;8335;42.646;23.380;2022-12-29T09:29:43;95333.19;;;18.21;44.39
8280;BME280;8335;42.646;23.380;2022-12-29T09:32:09;95320.16;;;18.35;44.18
8280;BME280;8335;42.646;23.380;2022-12-29T09:34:36;95329.72;;;18.59;43.89
8280;BME280;8335;42.646;23.380;2022-12-29T09:37:03;95328.56;;;18.63;42.76
8280;BME280;8335;42.646;23.380;2022-12-29T09:39:29;95328.88;;;18.22;42.72
8280;BME280;8335;42.646;23.380;2022-12-29T09:42:01;95317.34;;;17.76;43.80
8280;BME280;8335;42.646;23.380;2022-12-29T09:44:48;95320.84;;;17.36;44.91
8280;BME280;8335;42.646;23.380;2022-12-29T09:47:19;95317.41;;;17.10;45.42
8280;BME280;8335;42.646;23.380;2022-12-29T09:49:51;95303.59;;;17.11;45.95
8280;BME280;8335;42.646;23.380;2022-12-29T09:52:21;95294.78;;;17.15;45.66
8280;BME280;8335;42.646;23.380;2022-12-29T09:54:53;95299.94;;;16.88;45.79
8280;BME280;8335;42.646;23.380;2022-12-29T09:57:24;95299.50;;;16.81;46.72
8280;BME280;8335;42.646;23.380;2022-12-29T09:59:56;95294.84;;;17.00;46.70
8280;BME280;8335;42.646;23.380;2022-12-29T10:02:32;95294.13;;;17.11;45.91
8280;BME280;8335;42.646;23.380;2022-12-29T10:05:00;95294.03;;;17.13;46.18
8280;BME280;8335;42.646;23.380;2022-12-29T10:07:40;95280.66;;;17.08;46.36
8280;BME280;8335;42.646;23.380;2022-12-29T10:10:20;95282.50;;;16.64;47.18
8280;BME280;8335;42.646;23.380;2022-12-29T10:13:01;95278.22;;;16.65;46.94
8280;BME280;8335;42.646;23.380;2022-12-29T10:15:40;95274.84;;;16.50;47.61
8280;BME280;8335;42.646;23.380;2022-12-29T10:18:27;95277.22;;;16.53;48.02
8280;BME280;8335;42.646;23.380;2022-12-29T10:21:00;95277.88;;;16.42;47.90
8280;BME280;8335;42.646;23.380;2022-12-29T10:23:33;95276.00;;;16.32;47.91
8280;BME280;8335;42.646;23.380;2022-12-29T10:26:03;95273.44;;;16.17;48.26
8280;BME280;8335;42.646;23.380;2022-12-29T10:28:35;95268.69;;;16.11;48.53
8280;BME280;8335;42.646;23.380;2022-12-29T10:31:08;95266.75;;;16.29;48.57
8280;BME280;8335;42.646;23.380;2022-12-29T10:33:40;95268.00;;;16.36;48.26
8280;BME280;8335;42.646;23.380;2022-12-29T10:36:16;95211.53;;;16.08;48.24
8280;BME280;8335;42.646;23.380;2022-12-29T10:38:51;95262.88;;;16.36;48.38
8280;BME280;8335;42.646;23.380;2022-12-29T10:41:23;95262.56;;;16.41;47.43
8280;BME280;8335;42.646;23.380;2022-12-29T10:43:54;95261.75;;;16.40;47.88
8280;BME280;8335;42.646;23.380;2022-12-29T10:46:27;95252.88;;;16.32;47.76
8280;BME280;8335;42.646;23.380;2022-12-29T10:48:55;95232.06;;;16.22;48.54
8280;BME280;8335;42.646;23.380;2022-12-29T10:51:23;95250.03;;;16.36;48.94
8280;BME280;8335;42.646;23.380;2022-12-29T10:53:53;95237.00;;;16.25;48.54
8280;BME280;8335;42.646;23.380;2022-12-29T10:56:29;95252.88;;;16.17;48.97
8280;BME280;8335;42.646;23.380;2022-12-29T10:59:01;95238.41;;;16.02;49.09
8280;BME280;8335;42.646;23.380;2022-12-29T11:01:37;95247.50;;;15.93;49.66
8280;BME280;8335;42.646;23.380;2022-12-29T11:04:20;95234.09;;;16.03;49.35
8280;BME280;8335;42.646;23.380;2022-12-29T11:06:52;95222.91;;;16.04;49.63
8280;BME280;8335;42.646;23.380;2022-12-29T11:09:24;95163.06;;;15.75;49.21
8280;BME280;8335;42.646;23.380;2022-12-29T11:11:53;95219.03;;;16.11;49.39
8280;BME280;8335;42.646;23.380;2022-12-29T11:14:26;95210.69;;;15.93;49.58
8280;BME280;8335;42.646;23.380;2022-12-29T11:16:58;95220.09;;;15.94;49.56
8280;BME280;8335;42.646;23.380;2022-12-29T11:19:27;95216.41;;;15.69;49.95
8280;BME280;8335;42.646;23.380;2022-12-29T11:22:12;95209.84;;;15.65;50.45
8280;BME280;8335;42.646;23.380;2022-12-29T11:24:44;95209.63;;;15.68;50.81
8280;BME280;8335;42.646;23.380;2022-12-29T11:27:14;95208.25;;;15.63;50.86
8280;BME280;8335;42.646;23.380;2022-12-29T11:29:43;95202.09;;;15.51;51.01
8280;BME280;8335;42.646;23.380;2022-12-29T11:32:18;95206.41;;;15.51;51.16
8280;BME280;8335;42.646;23.380;2022-12-29T11:34:45;95204.47;;;15.54;51.06
8280;BME280;8335;42.646;23.380;2022-12-29T11:37:15;95206.13;;;15.55;51.88
8280;BME280;8335;42.646;23.380;2022-12-29T11:39:48;95199.38;;;15.68;51.18
8280;BME280;8335;42.646;23.380;2022-12-29T11:42:19;95200.38;;;15.66;50.68
8280;BME280;8335;42.646;23.380;2022-12-29T11:44:48;95117.44;;;15.08;51.01
8280;BME280;8335;42.646;23.380;2022-12-29T11:47:27;95191.53;;;15.41;51.25
8280;BME280;8335;42.646;23.380;2022-12-29T11:49:57;95196.13;;;15.08;52.16
8280;BME280;8335;42.646;23.380;2022-12-29T11:52:27;95187.13;;;15.01;53.23
8280;BME280;8335;42.646;23.380;2022-12-29T11:54:56;95191.59;;;14.97;53.20
8280;BME280;8335;42.646;23.380;2022-12-29T11:57:24;95191.13;;;14.61;54.22
8280;BME280;8335;42.646;23.380;2022-12-29T11:59:52;95168.16;;;14.43;54.89
8280;BME280;8335;42.646;23.380;2022-12-29T12:02:37;95184.22;;;13.99;55.93
8280;BME280;8335;42.646;23.380;2022-12-29T12:05:20;95186.34;;;13.91;56.56
8280;BME280;8335;42.646;23.380;2022-12-29T12:07:52;95175.88;;;13.80;57.35
8280;BME280;8335;42.646;23.380;2022-12-29T12:10:24;95176.63;;;13.66;58.37
8280;BME280;8335;42.646;23.380;2022-12-29T12:12:59;95175.69;;;13.52;59.12
8280;BME280;8335;42.646;23.380;2022-12-29T12:15:31;95170.22;;;13.42;58.82
8280;BME280;8335;42.646;23.380;2022-12-29T12:18:08;95172.25;;;13.35;59.70
8280;BME280;8335;42.646;23.380;2022-12-29T12:20:42;95142.13;;;13.07;59.73
8280;BME280;8335;42.646;23.380;2022-12-29T12:23:19;95172.19;;;13.19;60.86
8280;BME280;8335;42.646;23.380;2022-12-29T12:25:59;95164.94;;;12.94;61.08
8280;BME280;8335;42.646;23.380;2022-12-29T12:28:34;95148.06;;;12.57;62.08
8280;BME280;8335;42.646;23.380;2022-12-29T12:31:06;95164.63;;;12.49;62.61
8280;BME280;8335;42.646;23.380;2022-12-29T12:33:41;95163.22;;;12.43;64.00
8280;BME280;8335;42.646;23.380;2022-12-29T12:36:26;95153.97;;;12.40;64.47
8280;BME280;8335;42.646;23.380;2022-12-29T12:39:02;95151.41;;;12.40;64.33
8280;BME280;8335;42.646;23.380;2022-12-29T12:41:39;95152.97;;;12.26;64.84
8280;BME280;8335;42.646;23.380;2022-12-29T12:44:11;95153.63;;;12.12;65.13
8280;BME280;8335;42.646;23.380;2022-12-29T12:46:52;95154.19;;;12.00;65.54
8280;BME280;8335;42.646;23.380;2022-12-29T12:52:33;95155.81;;;11.83;67.15
8280;BME280;8335;42.646;23.380;2022-12-29T12:55:30;95156.44;;;11.89;67.41
8280;BME280;8335;42.646;23.380;2022-12-29T12:58:07;95154.25;;;11.81;66.74
8280;BME280;8335;42.646;23.380;2022-12-29T13:00:44;95091.50;;;11.39;66.39
8280;BME280;8335;42.646;23.380;2022-12-29T13:03:19;95152.75;;;11.56;67.15
8280;BME280;8335;42.646;23.380;2022-12-29T13:06:07;95154.22;;;11.43;68.00
8280;BME280;8335;42.646;23.380;2022-12-29T13:11:38;95154.94;;;11.26;69.17
8280;BME280;8335;42.646;23.380;2022-12-29T13:14:18;95150.72;;;11.07;70.30
8280;BME280;8335;42.646;23.380;2022-12-29T13:16:50;95148.06;;;10.89;70.39
8280;BME280;8335;42.646;23.380;2022-12-29T13:19:27;95142.53;;;10.80;71.20
8280;BME280;8335;42.646;23.380;2022-12-29T13:22:05;95149.03;;;10.66;71.88
8280;BME280;8335;42.646;23.380;2022-12-29T13:24:47;95164.66;;;10.57;72.44
8280;BME280;8335;42.646;23.380;2022-12-29T13:27:22;95161.53;;;10.72;72.16
8280;BME280;8335;42.646;23.380;2022-12-29T13:30:00;95156.69;;;10.66;72.87
8280;BME280;8335;42.646;23.380;2022-12-29T13:32:38;95159.56;;;10.57;73.77
8280;BME280;8335;42.646;23.380;2022-12-29T13:35:19;95162.50;;;10.48;74.22
8280;BME280;8335;42.646;23.380;2022-12-29T13:37:54;95155.19;;;10.40;74.86
8280;BME280;8335;42.646;23.380;2022-12-29T13:40:25;95151.94;;;10.37;74.75